Current Weather

Chicago O'Hare International

Chicago, Illinois (KORD)

Report from: Wednesday, September 28, 2022 3:51 AM CDT
Current time: Wednesday, September 28, 2022 4:17 AM CDT

Nearby weather
Weather history
Weather forecast

Temperature8.9°C (48.0°F)
Wind chill6.9°C (44.3°F)
Dew point4.4°C (39.9°F)
Winds 7 kts (3.6 m/s, 8.1 mph) North-Northwest (330°)
Visibility10 mi. (16.1 km)
Clouds Few clouds 4,000 ft. (1,219 m)
Few clouds 6,500 ft. (1,981 m)
Altimeter30.33 in.Hg (1027 mB)
Relative humidity73 %
Density altitude-1,076 ft. (-328 m)
Sea-level pressure102.7 kPa (1027 mB, 30.33 in.Hg)
Remarks Automated weather observing station with precipitation discriminator
Pressure rising more slowly
Flight conditions Visual Meteorological Conditions
Raw dataKORD 280851Z 33007KT 10SM FEW040 FEW065 09/04 A3033 RMK AO2 SLP271 T00890044 51012
An error has occurred. This application may no longer respond until reloaded. Reload 🗙